sensor_id;sensor_type;location;lat;lon;timestamp;P1;P2;P0
41382;PMS5003;27971;53.902;9.118;2023-02-08T00:05:05;8.03;6.5;
41382;PMS5003;27971;53.902;9.118;2023-02-08T00:07:08;9.14;8.0;
41382;PMS5003;27971;53.902;9.118;2023-02-08T00:09:11;6.54;6.52;
41382;PMS5003;27971;53.902;9.118;2023-02-08T00:11:13;7.89;6.57;
41382;PMS5003;27971;53.902;9.118;2023-02-08T00:13:16;8.18;6.8;
41382;PMS5003;27971;53.902;9.118;2023-02-08T00:15:18;8.03;6.8;
41382;PMS5003;27971;53.902;9.118;2023-02-08T00:17:21;7.68;6.79;
41382;PMS5003;27971;53.902;9.118;2023-02-08T00:19:23;7.63;6.62;
41382;PMS5003;27971;53.902;9.118;2023-02-08T00:21:25;8.23;7.29;
41382;PMS5003;27971;53.902;9.118;2023-02-08T00:23:28;8.47;7.51;
41382;PMS5003;27971;53.902;9.118;2023-02-08T00:25:30;6.63;6.48;
41382;PMS5003;27971;53.902;9.118;2023-02-08T00:27:33;7.56;7.26;
41382;PMS5003;27971;53.902;9.118;2023-02-08T00:29:35;7.03;6.63;
41382;PMS5003;27971;53.902;9.118;2023-02-08T00:31:38;7.63;7.16;
41382;PMS5003;27971;53.902;9.118;2023-02-08T00:33:41;6.7;6.27;
41382;PMS5003;27971;53.902;9.118;2023-02-08T00:35:43;7.5;7.1;
41382;PMS5003;27971;53.902;9.118;2023-02-08T00:37:46;6.86;6.16;
41382;PMS5003;27971;53.902;9.118;2023-02-08T00:39:48;7.47;6.8;
41382;PMS5003;27971;53.902;9.118;2023-02-08T00:41:51;9.48;7.22;
41382;PMS5003;27971;53.902;9.118;2023-02-08T00:43:54;9.22;7.28;
41382;PMS5003;27971;53.902;9.118;2023-02-08T00:45:57;7.08;6.71;
41382;PMS5003;27971;53.902;9.118;2023-02-08T00:47:59;6.36;6.1;
41382;PMS5003;27971;53.902;9.118;2023-02-08T00:50:02;7.31;7.03;
41382;PMS5003;27971;53.902;9.118;2023-02-08T00:52:04;7.09;6.18;
41382;PMS5003;27971;53.902;9.118;2023-02-08T00:54:09;6.96;6.5;
41382;PMS5003;27971;53.902;9.118;2023-02-08T00:56:10;7.85;6.64;
41382;PMS5003;27971;53.902;9.118;2023-02-08T00:58:13;7.49;6.93;
41382;PMS5003;27971;53.902;9.118;2023-02-08T01:00:15;7.53;7.03;
41382;PMS5003;27971;53.902;9.118;2023-02-08T01:02:18;6.73;6.03;
41382;PMS5003;27971;53.902;9.118;2023-02-08T01:04:21;7.47;7.13;
41382;PMS5003;27971;53.902;9.118;2023-02-08T01:06:23;7.36;7.12;
41382;PMS5003;27971;53.902;9.118;2023-02-08T01:08:26;5.81;5.38;
41382;PMS5003;27971;53.902;9.118;2023-02-08T01:10:28;6.31;6.21;
41382;PMS5003;27971;53.902;9.118;2023-02-08T01:12:31;7.26;5.86;
41382;PMS5003;27971;53.902;9.118;2023-02-08T01:14:35;9.3;7.63;
41382;PMS5003;27971;53.902;9.118;2023-02-08T01:16:36;7.5;6.51;
41382;PMS5003;27971;53.902;9.118;2023-02-08T01:18:40;7.78;6.68;
41382;PMS5003;27971;53.902;9.118;2023-02-08T01:20:42;7.48;6.81;
41382;PMS5003;27971;53.902;9.118;2023-02-08T01:22:44;9.5;7.17;
41382;PMS5003;27971;53.902;9.118;2023-02-08T01:24:47;8.69;6.78;
41382;PMS5003;27971;53.902;9.118;2023-02-08T01:26:50;7.64;6.78;
41382;PMS5003;27971;53.902;9.118;2023-02-08T01:28:53;6.39;5.76;
41382;PMS5003;27971;53.902;9.118;2023-02-08T01:30:55;7.19;6.82;
41382;PMS5003;27971;53.902;9.118;2023-02-08T01:32:58;7.16;6.67;
41382;PMS5003;27971;53.902;9.118;2023-02-08T01:35:01;8.13;6.98;
41382;PMS5003;27971;53.902;9.118;2023-02-08T01:37:04;7.64;7.32;
41382;PMS5003;27971;53.902;9.118;2023-02-08T01:39:06;6.5;6.28;
41382;PMS5003;27971;53.902;9.118;2023-02-08T01:41:12;6.92;6.6;
41382;PMS5003;27971;53.902;9.118;2023-02-08T01:43:16;8.31;6.56;
41382;PMS5003;27971;53.902;9.118;2023-02-08T01:45:20;6.24;6.17;
41382;PMS5003;27971;53.902;9.118;2023-02-08T01:47:17;6.46;6.32;
41382;PMS5003;27971;53.902;9.118;2023-02-08T01:49:20;6.88;5.93;
41382;PMS5003;27971;53.902;9.118;2023-02-08T01:51:23;6.67;5.91;
41382;PMS5003;27971;53.902;9.118;2023-02-08T01:53:26;5.6;5.38;
41382;PMS5003;27971;53.902;9.118;2023-02-08T01:55:30;6.7;6.34;
41382;PMS5003;27971;53.902;9.118;2023-02-08T01:57:31;6.74;5.97;
41382;PMS5003;27971;53.902;9.118;2023-02-08T01:59:35;7.02;6.39;
41382;PMS5003;27971;53.902;9.118;2023-02-08T02:01:37;7.13;6.23;
41382;PMS5003;27971;53.902;9.118;2023-02-08T02:03:40;7.17;6.41;
41382;PMS5003;27971;53.902;9.118;2023-02-08T02:05:43;6.53;5.63;
41382;PMS5003;27971;53.902;9.118;2023-02-08T02:07:45;7.63;6.84;
41382;PMS5003;27971;53.902;9.118;2023-02-08T02:09:50;8.48;6.64;
41382;PMS5003;27971;53.902;9.118;2023-02-08T02:11:52;7.22;6.69;
41382;PMS5003;27971;53.902;9.118;2023-02-08T02:13:55;7.48;7.42;
41382;PMS5003;27971;53.902;9.118;2023-02-08T02:15:58;6.79;5.22;
41382;PMS5003;27971;53.902;9.118;2023-02-08T02:18:01;6.96;5.76;
41382;PMS5003;27971;53.902;9.118;2023-02-08T02:20:06;7.33;6.65;
41382;PMS5003;27971;53.902;9.118;2023-02-08T02:22:12;7.08;6.19;
41382;PMS5003;27971;53.902;9.118;2023-02-08T02:24:12;6.8;6.12;
41382;PMS5003;27971;53.902;9.118;2023-02-08T02:26:18;7.12;6.52;
41382;PMS5003;27971;53.902;9.118;2023-02-08T02:28:21;7.4;6.21;
41382;PMS5003;27971;53.902;9.118;2023-02-08T02:30:30;6.57;6.26;
41382;PMS5003;27971;53.902;9.118;2023-02-08T02:32:22;5.43;5.43;
41382;PMS5003;27971;53.902;9.118;2023-02-08T02:34:23;5.93;5.82;
41382;PMS5003;27971;53.902;9.118;2023-02-08T02:36:27;6.76;5.83;
41382;PMS5003;27971;53.902;9.118;2023-02-08T02:38:31;5.89;5.56;
41382;PMS5003;27971;53.902;9.118;2023-02-08T02:40:33;7.15;6.7;
41382;PMS5003;27971;53.902;9.118;2023-02-08T02:42:35;6.2;5.69;
41382;PMS5003;27971;53.902;9.118;2023-02-08T02:44:36;8.07;6.86;
41382;PMS5003;27971;53.902;9.118;2023-02-08T02:46:39;6.52;6.17;
41382;PMS5003;27971;53.902;9.118;2023-02-08T02:48:41;7.21;6.83;
41382;PMS5003;27971;53.902;9.118;2023-02-08T02:50:43;7.36;7.12;
41382;PMS5003;27971;53.902;9.118;2023-02-08T02:52:47;6.97;6.26;
41382;PMS5003;27971;53.902;9.118;2023-02-08T02:54:49;8.01;6.82;
41382;PMS5003;27971;53.902;9.118;2023-02-08T02:56:53;7.12;6.92;
41382;PMS5003;27971;53.902;9.118;2023-02-08T02:58:55;6.06;5.65;
41382;PMS5003;27971;53.902;9.118;2023-02-08T03:00:57;7.19;5.47;
41382;PMS5003;27971;53.902;9.118;2023-02-08T03:02:59;6.48;6.15;
41382;PMS5003;27971;53.902;9.118;2023-02-08T03:05:02;5.99;5.86;
41382;PMS5003;27971;53.902;9.118;2023-02-08T03:07:06;6.78;6.39;
41382;PMS5003;27971;53.902;9.118;2023-02-08T03:09:13;7.27;6.82;
41382;PMS5003;27971;53.902;9.118;2023-02-08T03:11:13;6.51;5.57;
41382;PMS5003;27971;53.902;9.118;2023-02-08T03:13:16;6.74;5.65;
41382;PMS5003;27971;53.902;9.118;2023-02-08T03:15:19;5.86;5.36;
41382;PMS5003;27971;53.902;9.118;2023-02-08T03:17:24;7.82;6.7;
41382;PMS5003;27971;53.902;9.118;2023-02-08T03:19:25;7.47;6.35;
41382;PMS5003;27971;53.902;9.118;2023-02-08T03:21:27;5.08;5.08;
41382;PMS5003;27971;53.902;9.118;2023-02-08T03:23:27;5.84;5.61;
41382;PMS5003;27971;53.902;9.118;2023-02-08T03:25:32;6.02;5.44;
41382;PMS5003;27971;53.902;9.118;2023-02-08T03:27:33;6.46;5.64;
41382;PMS5003;27971;53.902;9.118;2023-02-08T03:29:38;7.1;6.24;
41382;PMS5003;27971;53.902;9.118;2023-02-08T03:31:38;6.98;6.27;
41382;PMS5003;27971;53.902;9.118;2023-02-08T03:33:43;6.46;5.58;
41382;PMS5003;27971;53.902;9.118;2023-02-08T03:35:44;6.71;5.88;
41382;PMS5003;27971;53.902;9.118;2023-02-08T03:37:47;7.81;6.54;
41382;PMS5003;27971;53.902;9.118;2023-02-08T03:39:49;7.33;6.52;
41382;PMS5003;27971;53.902;9.118;2023-02-08T03:41:52;6.95;6.5;
41382;PMS5003;27971;53.902;9.118;2023-02-08T03:43:55;6.44;6.12;
41382;PMS5003;27971;53.902;9.118;2023-02-08T03:46:01;7.02;6.01;
41382;PMS5003;27971;53.902;9.118;2023-02-08T03:48:01;6.34;5.99;
41382;PMS5003;27971;53.902;9.118;2023-02-08T03:50:04;6.79;5.68;
41382;PMS5003;27971;53.902;9.118;2023-02-08T03:52:07;7.57;6.98;
41382;PMS5003;27971;53.902;9.118;2023-02-08T03:54:09;6.62;5.76;
41382;PMS5003;27971;53.902;9.118;2023-02-08T03:56:13;6.49;6.45;
41382;PMS5003;27971;53.902;9.118;2023-02-08T03:58:14;6.51;5.52;
41382;PMS5003;27971;53.902;9.118;2023-02-08T04:00:16;7.22;6.66;
41382;PMS5003;27971;53.902;9.118;2023-02-08T04:02:20;7.11;6.2;
41382;PMS5003;27971;53.902;9.118;2023-02-08T04:04:23;6.64;6.26;
41382;PMS5003;27971;53.902;9.118;2023-02-08T04:06:26;6.24;5.7;
41382;PMS5003;27971;53.902;9.118;2023-02-08T04:08:29;7.82;6.8;
41382;PMS5003;27971;53.902;9.118;2023-02-08T04:10:31;6.71;5.94;
41382;PMS5003;27971;53.902;9.118;2023-02-08T04:12:34;6.6;6.23;
41382;PMS5003;27971;53.902;9.118;2023-02-08T04:14:36;6.43;6.09;
41382;PMS5003;27971;53.902;9.118;2023-02-08T04:16:38;5.99;5.79;
41382;PMS5003;27971;53.902;9.118;2023-02-08T04:18:41;6.4;4.98;
41382;PMS5003;27971;53.902;9.118;2023-02-08T04:20:44;6.09;5.91;
41382;PMS5003;27971;53.902;9.118;2023-02-08T04:22:46;8.7;7.66;
41382;PMS5003;27971;53.902;9.118;2023-02-08T04:24:49;6.66;6.39;
41382;PMS5003;27971;53.902;9.118;2023-02-08T04:26:51;6.82;5.88;
41382;PMS5003;27971;53.902;9.118;2023-02-08T04:28:54;6.36;6.13;
41382;PMS5003;27971;53.902;9.118;2023-02-08T04:30:56;6.94;5.92;
41382;PMS5003;27971;53.902;9.118;2023-02-08T04:32:59;6.98;6.29;
41382;PMS5003;27971;53.902;9.118;2023-02-08T04:35:01;7.01;6.26;
41382;PMS5003;27971;53.902;9.118;2023-02-08T04:37:04;6.87;6.17;
41382;PMS5003;27971;53.902;9.118;2023-02-08T04:39:07;7.91;6.69;
41382;PMS5003;27971;53.902;9.118;2023-02-08T04:41:10;6.59;6.29;
41382;PMS5003;27971;53.902;9.118;2023-02-08T04:43:12;5.89;5.6;
41382;PMS5003;27971;53.902;9.118;2023-02-08T04:45:14;5.87;5.46;
41382;PMS5003;27971;53.902;9.118;2023-02-08T04:47:17;5.52;4.99;
41382;PMS5003;27971;53.902;9.118;2023-02-08T04:49:20;6.32;5.81;
41382;PMS5003;27971;53.902;9.118;2023-02-08T04:51:23;5.29;4.9;
41382;PMS5003;27971;53.902;9.118;2023-02-08T04:53:26;6.31;5.83;
41382;PMS5003;27971;53.902;9.118;2023-02-08T04:55:28;6.99;6.1;
41382;PMS5003;27971;53.902;9.118;2023-02-08T04:57:31;6.66;6.26;
41382;PMS5003;27971;53.902;9.118;2023-02-08T04:59:33;6.46;6.0;
41382;PMS5003;27971;53.902;9.118;2023-02-08T05:01:36;5.82;5.41;
41382;PMS5003;27971;53.902;9.118;2023-02-08T05:03:38;5.7;5.7;
41382;PMS5003;27971;53.902;9.118;2023-02-08T05:05:41;5.34;5.24;
41382;PMS5003;27971;53.902;9.118;2023-02-08T05:07:44;6.1;5.7;
41382;PMS5003;27971;53.902;9.118;2023-02-08T05:09:47;6.92;5.89;
41382;PMS5003;27971;53.902;9.118;2023-02-08T05:11:49;5.67;5.53;
41382;PMS5003;27971;53.902;9.118;2023-02-08T05:13:52;6.06;5.73;
41382;PMS5003;27971;53.902;9.118;2023-02-08T05:15:54;6.89;5.88;
41382;PMS5003;27971;53.902;9.118;2023-02-08T05:17:57;6.08;5.49;
41382;PMS5003;27971;53.902;9.118;2023-02-08T05:20:00;6.49;5.84;
41382;PMS5003;27971;53.902;9.118;2023-02-08T05:22:02;7.29;7.02;
41382;PMS5003;27971;53.902;9.118;2023-02-08T05:24:05;6.18;5.93;
41382;PMS5003;27971;53.902;9.118;2023-02-08T05:26:07;6.37;6.0;
41382;PMS5003;27971;53.902;9.118;2023-02-08T05:28:10;6.46;5.92;
41382;PMS5003;27971;53.902;9.118;2023-02-08T05:30:12;5.57;5.57;
41382;PMS5003;27971;53.902;9.118;2023-02-08T05:32:15;6.42;5.79;
41382;PMS5003;27971;53.902;9.118;2023-02-08T05:34:18;7.12;6.52;
41382;PMS5003;27971;53.902;9.118;2023-02-08T05:36:20;5.38;5.24;
41382;PMS5003;27971;53.902;9.118;2023-02-08T05:38:24;6.09;5.72;
41382;PMS5003;27971;53.902;9.118;2023-02-08T05:40:26;6.2;5.4;
41382;PMS5003;27971;53.902;9.118;2023-02-08T05:42:29;6.72;5.89;
41382;PMS5003;27971;53.902;9.118;2023-02-08T05:44:32;6.09;5.66;
41382;PMS5003;27971;53.902;9.118;2023-02-08T05:46:34;6.87;6.1;
41382;PMS5003;27971;53.902;9.118;2023-02-08T05:48:37;5.29;4.76;
41382;PMS5003;27971;53.902;9.118;2023-02-08T05:50:40;6.96;6.29;
41382;PMS5003;27971;53.902;9.118;2023-02-08T05:52:42;6.67;6.1;
41382;PMS5003;27971;53.902;9.118;2023-02-08T05:54:45;5.33;5.03;
41382;PMS5003;27971;53.902;9.118;2023-02-08T05:56:47;7.46;5.62;
41382;PMS5003;27971;53.902;9.118;2023-02-08T05:58:50;6.1;5.5;
41382;PMS5003;27971;53.902;9.118;2023-02-08T06:00:53;5.11;4.93;
41382;PMS5003;27971;53.902;9.118;2023-02-08T06:02:56;5.87;5.17;
41382;PMS5003;27971;53.902;9.118;2023-02-08T06:04:58;6.15;5.04;
41382;PMS5003;27971;53.902;9.118;2023-02-08T06:07:00;5.02;4.58;
41382;PMS5003;27971;53.902;9.118;2023-02-08T06:09:03;5.33;4.84;
41382;PMS5003;27971;53.902;9.118;2023-02-08T06:11:05;7.7;7.03;
41382;PMS5003;27971;53.902;9.118;2023-02-08T06:13:08;6.19;5.82;
41382;PMS5003;27971;53.902;9.118;2023-02-08T06:15:10;6.34;6.19;
41382;PMS5003;27971;53.902;9.118;2023-02-08T06:17:13;6.18;5.36;
41382;PMS5003;27971;53.902;9.118;2023-02-08T06:19:16;5.74;5.32;
41382;PMS5003;27971;53.902;9.118;2023-02-08T06:21:18;6.22;5.29;
41382;PMS5003;27971;53.902;9.118;2023-02-08T06:23:21;5.92;5.72;
41382;PMS5003;27971;53.902;9.118;2023-02-08T06:25:23;6.35;6.01;
41382;PMS5003;27971;53.902;9.118;2023-02-08T06:27:26;6.84;6.0;
41382;PMS5003;27971;53.902;9.118;2023-02-08T06:29:28;7.6;7.01;
41382;PMS5003;27971;53.902;9.118;2023-02-08T06:31:31;6.53;6.29;
41382;PMS5003;27971;53.902;9.118;2023-02-08T06:33:33;5.21;4.42;
41382;PMS5003;27971;53.902;9.118;2023-02-08T06:35:36;5.71;5.17;
41382;PMS5003;27971;53.902;9.118;2023-02-08T06:37:38;6.36;5.87;
41382;PMS5003;27971;53.902;9.118;2023-02-08T06:39:41;5.08;4.97;
41382;PMS5003;27971;53.902;9.118;2023-02-08T06:41:44;6.72;6.47;
41382;PMS5003;27971;53.902;9.118;2023-02-08T06:43:46;5.88;5.4;
41382;PMS5003;27971;53.902;9.118;2023-02-08T06:45:49;6.49;5.42;
41382;PMS5003;27971;53.902;9.118;2023-02-08T06:47:51;7.2;6.3;
41382;PMS5003;27971;53.902;9.118;2023-02-08T06:49:53;5.67;5.23;
41382;PMS5003;27971;53.902;9.118;2023-02-08T06:51:56;6.44;6.22;
41382;PMS5003;27971;53.902;9.118;2023-02-08T06:53:59;6.82;6.29;
41382;PMS5003;27971;53.902;9.118;2023-02-08T06:56:02;6.01;5.93;
41382;PMS5003;27971;53.902;9.118;2023-02-08T06:58:05;6.09;5.96;
41382;PMS5003;27971;53.902;9.118;2023-02-08T07:00:08;5.91;5.64;
41382;PMS5003;27971;53.902;9.118;2023-02-08T07:02:11;6.91;6.15;
41382;PMS5003;27971;53.902;9.118;2023-02-08T07:04:12;6.02;5.45;
41382;PMS5003;27971;53.902;9.118;2023-02-08T07:06:16;4.89;4.53;
41382;PMS5003;27971;53.902;9.118;2023-02-08T07:08:18;5.75;5.35;
41382;PMS5003;27971;53.902;9.118;2023-02-08T07:10:21;6.7;6.2;
41382;PMS5003;27971;53.902;9.118;2023-02-08T07:12:23;5.14;5.01;
41382;PMS5003;27971;53.902;9.118;2023-02-08T07:14:26;7.28;6.28;
41382;PMS5003;27971;53.902;9.118;2023-02-08T07:16:28;5.51;5.44;
41382;PMS5003;27971;53.902;9.118;2023-02-08T07:18:31;6.6;5.4;
41382;PMS5003;27971;53.902;9.118;2023-02-08T07:20:33;6.47;5.67;
41382;PMS5003;27971;53.902;9.118;2023-02-08T07:22:36;6.4;5.9;
41382;PMS5003;27971;53.902;9.118;2023-02-08T07:24:40;5.72;5.32;
41382;PMS5003;27971;53.902;9.118;2023-02-08T07:26:42;5.84;5.45;
41382;PMS5003;27971;53.902;9.118;2023-02-08T07:28:45;6.49;6.11;
41382;PMS5003;27971;53.902;9.118;2023-02-08T07:30:47;6.47;6.12;
41382;PMS5003;27971;53.902;9.118;2023-02-08T07:32:50;6.9;6.3;
41382;PMS5003;27971;53.902;9.118;2023-02-08T07:34:52;6.44;6.31;
41382;PMS5003;27971;53.902;9.118;2023-02-08T07:36:55;6.11;5.99;
41382;PMS5003;27971;53.902;9.118;2023-02-08T07:38:57;5.74;5.54;
41382;PMS5003;27971;53.902;9.118;2023-02-08T07:41:00;5.58;5.58;
41382;PMS5003;27971;53.902;9.118;2023-02-08T07:43:02;6.17;5.18;
41382;PMS5003;27971;53.902;9.118;2023-02-08T07:45:05;7.13;6.06;
41382;PMS5003;27971;53.902;9.118;2023-02-08T07:47:08;5.83;5.6;
41382;PMS5003;27971;53.902;9.118;2023-02-08T07:49:10;5.71;5.51;
41382;PMS5003;27971;53.902;9.118;2023-02-08T07:51:13;7.14;6.11;
41382;PMS5003;27971;53.902;9.118;2023-02-08T07:53:15;6.76;5.98;
41382;PMS5003;27971;53.902;9.118;2023-02-08T07:55:17;6.34;5.04;
41382;PMS5003;27971;53.902;9.118;2023-02-08T07:57:20;6.67;6.0;
41382;PMS5003;27971;53.902;9.118;2023-02-08T07:59:22;5.74;5.22;
41382;PMS5003;27971;53.902;9.118;2023-02-08T08:01:24;7.63;5.99;
41382;PMS5003;27971;53.902;9.118;2023-02-08T08:03:27;6.42;5.43;
41382;PMS5003;27971;53.902;9.118;2023-02-08T08:05:30;5.54;5.44;
41382;PMS5003;27971;53.902;9.118;2023-02-08T08:07:32;6.08;5.81;
41382;PMS5003;27971;53.902;9.118;2023-02-08T08:09:35;6.73;6.19;
41382;PMS5003;27971;53.902;9.118;2023-02-08T08:11:37;5.71;5.4;
41382;PMS5003;27971;53.902;9.118;2023-02-08T08:13:40;5.63;5.31;
41382;PMS5003;27971;53.902;9.118;2023-02-08T08:15:43;5.68;4.92;
41382;PMS5003;27971;53.902;9.118;2023-02-08T08:17:46;6.7;6.18;
41382;PMS5003;27971;53.902;9.118;2023-02-08T08:19:48;6.36;5.83;
41382;PMS5003;27971;53.902;9.118;2023-02-08T08:21:51;7.34;6.07;
41382;PMS5003;27971;53.902;9.118;2023-02-08T08:23:54;6.92;6.18;
41382;PMS5003;27971;53.902;9.118;2023-02-08T08:25:56;6.29;5.62;
41382;PMS5003;27971;53.902;9.118;2023-02-08T08:27:59;6.14;5.4;
41382;PMS5003;27971;53.902;9.118;2023-02-08T08:30:01;6.19;6.0;
41382;PMS5003;27971;53.902;9.118;2023-02-08T08:32:05;6.5;6.07;
41382;PMS5003;27971;53.902;9.118;2023-02-08T08:34:07;6.76;6.08;
41382;PMS5003;27971;53.902;9.118;2023-02-08T08:36:14;7.29;6.64;
41382;PMS5003;27971;53.902;9.118;2023-02-08T08:38:12;6.58;6.26;
41382;PMS5003;27971;53.902;9.118;2023-02-08T08:40:14;7.63;6.76;
41382;PMS5003;27971;53.902;9.118;2023-02-08T08:42:17;7.62;6.9;
41382;PMS5003;27971;53.902;9.118;2023-02-08T08:44:19;7.96;6.77;
41382;PMS5003;27971;53.902;9.118;2023-02-08T08:46:22;6.7;6.06;
41382;PMS5003;27971;53.902;9.118;2023-02-08T08:48:24;6.84;6.68;
41382;PMS5003;27971;53.902;9.118;2023-02-08T08:50:27;7.1;6.63;
41382;PMS5003;27971;53.902;9.118;2023-02-08T08:52:30;6.09;5.91;
41382;PMS5003;27971;53.902;9.118;2023-02-08T08:54:32;7.58;7.12;
41382;PMS5003;27971;53.902;9.118;2023-02-08T08:56:36;7.67;7.04;
41382;PMS5003;27971;53.902;9.118;2023-02-08T08:58:38;7.63;5.99;
41382;PMS5003;27971;53.902;9.118;2023-02-08T09:00:41;7.52;6.19;
41382;PMS5003;27971;53.902;9.118;2023-02-08T09:02:43;6.61;6.1;
41382;PMS5003;27971;53.902;9.118;2023-02-08T09:04:46;8.91;6.68;
41382;PMS5003;27971;53.902;9.118;2023-02-08T09:06:48;7.43;6.43;
41382;PMS5003;27971;53.902;9.118;2023-02-08T09:08:51;8.89;7.61;
41382;PMS5003;27971;53.902;9.118;2023-02-08T09:10:54;6.93;6.32;
41382;PMS5003;27971;53.902;9.118;2023-02-08T09:12:57;8.2;7.08;
41382;PMS5003;27971;53.902;9.118;2023-02-08T09:15:00;8.28;6.89;
41382;PMS5003;27971;53.902;9.118;2023-02-08T09:17:02;8.23;7.14;
41382;PMS5003;27971;53.902;9.118;2023-02-08T09:19:05;7.06;6.06;
41382;PMS5003;27971;53.902;9.118;2023-02-08T09:21:08;8.35;7.67;
41382;PMS5003;27971;53.902;9.118;2023-02-08T09:23:11;8.36;7.45;
41382;PMS5003;27971;53.902;9.118;2023-02-08T09:25:14;9.19;8.49;
41382;PMS5003;27971;53.902;9.118;2023-02-08T09:27:17;7.59;7.39;
41382;PMS5003;27971;53.902;9.118;2023-02-08T09:29:19;8.33;7.39;
41382;PMS5003;27971;53.902;9.118;2023-02-08T09:31:23;9.57;8.56;
41382;PMS5003;27971;53.902;9.118;2023-02-08T09:33:24;8.77;7.36;
41382;PMS5003;27971;53.902;9.118;2023-02-08T09:35:27;9.11;7.63;
41382;PMS5003;27971;53.902;9.118;2023-02-08T09:37:29;8.81;8.48;
41382;PMS5003;27971;53.902;9.118;2023-02-08T09:39:32;9.99;8.86;
41382;PMS5003;27971;53.902;9.118;2023-02-08T09:41:42;10.27;8.56;
41382;PMS5003;27971;53.902;9.118;2023-02-08T09:43:38;10.06;8.86;
41382;PMS5003;27971;53.902;9.118;2023-02-08T09:45:43;13.21;10.37;
41382;PMS5003;27971;53.902;9.118;2023-02-08T09:47:44;10.21;8.94;
41382;PMS5003;27971;53.902;9.118;2023-02-08T09:49:48;12.13;10.25;
41382;PMS5003;27971;53.902;9.118;2023-02-08T09:51:50;12.01;9.77;
41382;PMS5003;27971;53.902;9.118;2023-02-08T09:53:53;12.59;11.62;
41382;PMS5003;27971;53.902;9.118;2023-02-08T09:55:56;13.54;12.2;
41382;PMS5003;27971;53.902;9.118;2023-02-08T09:57:59;11.87;9.81;
41382;PMS5003;27971;53.902;9.118;2023-02-08T10:00:03;13.67;12.22;
41382;PMS5003;27971;53.902;9.118;2023-02-08T10:02:10;13.55;12.33;
41382;PMS5003;27971;53.902;9.118;2023-02-08T10:04:09;15.31;12.68;
41382;PMS5003;27971;53.902;9.118;2023-02-08T10:06:11;12.13;11.07;
41382;PMS5003;27971;53.902;9.118;2023-02-08T10:08:13;13.33;11.25;
41382;PMS5003;27971;53.902;9.118;2023-02-08T10:10:18;13.44;10.98;
41382;PMS5003;27971;53.902;9.118;2023-02-08T10:12:19;14.19;12.27;
41382;PMS5003;27971;53.902;9.118;2023-02-08T10:14:26;14.05;12.0;
41382;PMS5003;27971;53.902;9.118;2023-02-08T10:16:31;11.88;10.44;
41382;PMS5003;27971;53.902;9.118;2023-02-08T10:18:29;14.84;13.51;
41382;PMS5003;27971;53.902;9.118;2023-02-08T10:20:32;14.37;11.26;
41382;PMS5003;27971;53.902;9.118;2023-02-08T10:22:35;14.49;12.33;
41382;PMS5003;27971;53.902;9.118;2023-02-08T10:24:40;13.95;12.13;
41382;PMS5003;27971;53.902;9.118;2023-02-08T10:26:39;15.39;12.88;
41382;PMS5003;27971;53.902;9.118;2023-02-08T10:28:45;14.69;11.71;
41382;PMS5003;27971;53.902;9.118;2023-02-08T10:30:44;13.22;11.75;
41382;PMS5003;27971;53.902;9.118;2023-02-08T10:32:49;12.85;11.29;
41382;PMS5003;27971;53.902;9.118;2023-02-08T10:34:49;14.73;12.3;
41382;PMS5003;27971;53.902;9.118;2023-02-08T10:36:52;15.44;12.83;
41382;PMS5003;27971;53.902;9.118;2023-02-08T10:38:55;12.84;11.28;
41382;PMS5003;27971;53.902;9.118;2023-02-08T10:40:59;13.73;12.02;
41382;PMS5003;27971;53.902;9.118;2023-02-08T10:43:06;16.88;14.1;
41382;PMS5003;27971;53.902;9.118;2023-02-08T10:45:07;15.0;12.24;
41382;PMS5003;27971;53.902;9.118;2023-02-08T10:47:09;11.86;10.46;
41382;PMS5003;27971;53.902;9.118;2023-02-08T10:49:11;14.6;13.04;
41382;PMS5003;27971;53.902;9.118;2023-02-08T10:51:13;12.9;10.74;
41382;PMS5003;27971;53.902;9.118;2023-02-08T10:53:16;15.53;13.43;
41382;PMS5003;27971;53.902;9.118;2023-02-08T10:55:19;14.71;13.33;
41382;PMS5003;27971;53.902;9.118;2023-02-08T10:57:23;14.93;12.97;
41382;PMS5003;27971;53.902;9.118;2023-02-08T10:59:26;14.39;12.39;
41382;PMS5003;27971;53.902;9.118;2023-02-08T11:01:28;15.31;11.76;
41382;PMS5003;27971;53.902;9.118;2023-02-08T11:03:31;13.03;12.1;
41382;PMS5003;27971;53.902;9.118;2023-02-08T11:05:35;13.5;11.83;
41382;PMS5003;27971;53.902;9.118;2023-02-08T11:07:36;13.09;11.41;
41382;PMS5003;27971;53.902;9.118;2023-02-08T11:09:39;15.88;13.24;
41382;PMS5003;27971;53.902;9.118;2023-02-08T11:11:42;12.56;11.04;
41382;PMS5003;27971;53.902;9.118;2023-02-08T11:13:46;13.3;11.79;
41382;PMS5003;27971;53.902;9.118;2023-02-08T11:15:48;14.16;12.2;
41382;PMS5003;27971;53.902;9.118;2023-02-08T11:17:52;13.53;11.67;
41382;PMS5003;27971;53.902;9.118;2023-02-08T11:19:54;12.2;10.57;
41382;PMS5003;27971;53.902;9.118;2023-02-08T11:21:57;14.3;12.91;
41382;PMS5003;27971;53.902;9.118;2023-02-08T11:24:01;12.56;10.79;
41382;PMS5003;27971;53.902;9.118;2023-02-08T11:26:20;15.88;11.59;
41382;PMS5003;27971;53.902;9.118;2023-02-08T11:28:16;13.17;11.66;
41382;PMS5003;27971;53.902;9.118;2023-02-08T11:30:16;13.27;11.18;
41382;PMS5003;27971;53.902;9.118;2023-02-08T11:32:14;13.06;11.06;
41382;PMS5003;27971;53.902;9.118;2023-02-08T11:34:14;15.11;13.28;
41382;PMS5003;27971;53.902;9.118;2023-02-08T11:36:18;14.89;12.4;
41382;PMS5003;27971;53.902;9.118;2023-02-08T11:38:20;14.27;12.52;
41382;PMS5003;27971;53.902;9.118;2023-02-08T11:40:24;12.27;10.43;
41382;PMS5003;27971;53.902;9.118;2023-02-08T11:42:27;12.58;11.35;
41382;PMS5003;27971;53.902;9.118;2023-02-08T11:44:30;16.17;14.42;
41382;PMS5003;27971;53.902;9.118;2023-02-08T11:46:33;12.78;10.7;
41382;PMS5003;27971;53.902;9.118;2023-02-08T11:48:39;14.77;11.83;
41382;PMS5003;27971;53.902;9.118;2023-02-08T11:50:37;14.58;11.58;
41382;PMS5003;27971;53.902;9.118;2023-02-08T11:52:40;14.21;11.78;
41382;PMS5003;27971;53.902;9.118;2023-02-08T11:54:43;14.03;12.43;
41382;PMS5003;27971;53.902;9.118;2023-02-08T11:56:48;12.29;11.3;
41382;PMS5003;27971;53.902;9.118;2023-02-08T11:58:57;14.11;12.08;
41382;PMS5003;27971;53.902;9.118;2023-02-08T12:00:56;15.93;13.56;
41382;PMS5003;27971;53.902;9.118;2023-02-08T12:02:55;11.56;10.62;
41382;PMS5003;27971;53.902;9.118;2023-02-08T12:04:57;11.17;9.83;
41382;PMS5003;27971;53.902;9.118;2023-02-08T12:07:18;14.5;12.6;
41382;PMS5003;27971;53.902;9.118;2023-02-08T12:09:05;15.88;12.42;
41382;PMS5003;27971;53.902;9.118;2023-02-08T12:11:07;13.1;11.06;
41382;PMS5003;27971;53.902;9.118;2023-02-08T12:13:14;12.08;11.1;
41382;PMS5003;27971;53.902;9.118;2023-02-08T12:15:14;12.61;10.74;
41382;PMS5003;27971;53.902;9.118;2023-02-08T12:17:20;12.29;11.66;
41382;PMS5003;27971;53.902;9.118;2023-02-08T12:19:25;12.49;10.64;
41382;PMS5003;27971;53.902;9.118;2023-02-08T12:21:21;11.07;10.75;
41382;PMS5003;27971;53.902;9.118;2023-02-08T12:23:28;12.18;11.43;
41382;PMS5003;27971;53.902;9.118;2023-02-08T12:25:27;11.73;10.84;
41382;PMS5003;27971;53.902;9.118;2023-02-08T12:27:31;12.53;11.18;
41382;PMS5003;27971;53.902;9.118;2023-02-08T12:29:35;11.91;10.9;
41382;PMS5003;27971;53.902;9.118;2023-02-08T12:31:37;12.76;11.17;
41382;PMS5003;27971;53.902;9.118;2023-02-08T12:33:39;12.52;10.04;
41382;PMS5003;27971;53.902;9.118;2023-02-08T12:35:57;12.07;10.56;
41382;PMS5003;27971;53.902;9.118;2023-02-08T12:37:44;13.37;11.61;
41382;PMS5003;27971;53.902;9.118;2023-02-08T12:39:47;13.24;11.5;
41382;PMS5003;27971;53.902;9.118;2023-02-08T12:41:53;11.95;9.36;
41382;PMS5003;27971;53.902;9.118;2023-02-08T12:43:53;9.4;8.82;